sensor_id;sensor_type;location;lat;lon;timestamp;pressure;altitude;pressure_sealevel;temperature;humidity
28312;BME280;15572;48.810;9.148;2023-02-15T00:01:32;99474.88;;;-0.93;100.00
28312;BME280;15572;48.810;9.148;2023-02-15T00:06:29;99475.66;;;-0.91;100.00
28312;BME280;15572;48.810;9.148;2023-02-15T00:11:26;99463.16;;;-0.91;100.00
28312;BME280;15572;48.810;9.148;2023-02-15T00:16:45;99454.38;;;-0.91;100.00
28312;BME280;15572;48.810;9.148;2023-02-15T00:21:42;99454.63;;;-0.96;100.00
28312;BME280;15572;48.810;9.148;2023-02-15T00:26:40;99450.09;;;-0.94;100.00
28312;BME280;15572;48.810;9.148;2023-02-15T00:31:37;99457.13;;;-0.93;100.00
28312;BME280;15572;48.810;9.148;2023-02-15T00:36:34;99454.47;;;-0.93;100.00
28312;BME280;15572;48.810;9.148;2023-02-15T00:41:30;99448.66;;;-0.99;100.00
28312;BME280;15572;48.810;9.148;2023-02-15T00:46:29;99448.16;;;-1.06;100.00
28312;BME280;15572;48.810;9.148;2023-02-15T00:51:26;99454.63;;;-1.10;100.00
28312;BME280;15572;48.810;9.148;2023-02-15T00:56:22;99453.84;;;-1.12;100.00
28312;BME280;15572;48.810;9.148;2023-02-15T01:01:20;99448.72;;;-1.15;100.00
28312;BME280;15572;48.810;9.148;2023-02-15T01:06:18;99448.06;;;-1.18;100.00
28312;BME280;15572;48.810;9.148;2023-02-15T01:11:17;99436.97;;;-1.25;100.00
28312;BME280;15572;48.810;9.148;2023-02-15T01:16:17;99449.75;;;-1.32;100.00
28312;BME280;15572;48.810;9.148;2023-02-15T01:21:15;99436.75;;;-1.36;100.00
28312;BME280;15572;48.810;9.148;2023-02-15T01:26:14;99451.53;;;-1.46;100.00
28312;BME280;15572;48.810;9.148;2023-02-15T01:31:13;99451.88;;;-1.52;100.00
28312;BME280;15572;48.810;9.148;2023-02-15T01:36:10;99445.81;;;-1.54;100.00
28312;BME280;15572;48.810;9.148;2023-02-15T01:41:07;99443.34;;;-1.57;100.00
28312;BME280;15572;48.810;9.148;2023-02-15T01:46:22;99438.66;;;-1.68;100.00
28312;BME280;15572;48.810;9.148;2023-02-15T01:51:23;99435.50;;;-1.75;100.00
28312;BME280;15572;48.810;9.148;2023-02-15T01:56:23;99440.72;;;-1.73;100.00
28312;BME280;15572;48.810;9.148;2023-02-15T02:01:22;99426.94;;;-1.80;100.00
28312;BME280;15572;48.810;9.148;2023-02-15T02:06:20;99425.50;;;-1.85;100.00
28312;BME280;15572;48.810;9.148;2023-02-15T02:11:17;99419.53;;;-1.89;100.00
28312;BME280;15572;48.810;9.148;2023-02-15T02:16:22;99418.94;;;-1.94;100.00
28312;BME280;15572;48.810;9.148;2023-02-15T02:21:35;99431.03;;;-2.04;100.00
28312;BME280;15572;48.810;9.148;2023-02-15T02:26:58;99423.81;;;-2.02;100.00
28312;BME280;15572;48.810;9.148;2023-02-15T02:32:24;99421.94;;;-2.00;100.00
28312;BME280;15572;48.810;9.148;2023-02-15T02:37:36;99409.47;;;-1.98;100.00
28312;BME280;15572;48.810;9.148;2023-02-15T02:42:35;99417.78;;;-2.04;100.00
28312;BME280;15572;48.810;9.148;2023-02-15T02:47:38;99421.38;;;-2.05;100.00
28312;BME280;15572;48.810;9.148;2023-02-15T02:52:40;99424.66;;;-1.86;100.00
28312;BME280;15572;48.810;9.148;2023-02-15T02:57:43;99409.84;;;-1.90;100.00
28312;BME280;15572;48.810;9.148;2023-02-15T03:02:44;99414.59;;;-2.10;100.00
28312;BME280;15572;48.810;9.148;2023-02-15T03:07:48;99406.41;;;-2.22;100.00
28312;BME280;15572;48.810;9.148;2023-02-15T03:12:46;99397.44;;;-2.19;100.00
28312;BME280;15572;48.810;9.148;2023-02-15T03:17:44;99399.00;;;-2.01;100.00
28312;BME280;15572;48.810;9.148;2023-02-15T03:22:48;99405.16;;;-2.00;100.00
28312;BME280;15572;48.810;9.148;2023-02-15T03:27:51;99405.59;;;-2.08;100.00
28312;BME280;15572;48.810;9.148;2023-02-15T03:32:49;99400.44;;;-2.25;100.00
28312;BME280;15572;48.810;9.148;2023-02-15T03:37:51;99404.72;;;-2.38;100.00
28312;BME280;15572;48.810;9.148;2023-02-15T03:42:55;99404.91;;;-2.41;100.00
28312;BME280;15572;48.810;9.148;2023-02-15T03:47:56;99404.91;;;-2.41;100.00
28312;BME280;15572;48.810;9.148;2023-02-15T03:52:57;99405.56;;;-2.38;100.00
28312;BME280;15572;48.810;9.148;2023-02-15T03:57:55;99415.16;;;-2.35;100.00
28312;BME280;15572;48.810;9.148;2023-02-15T04:03:24;99408.28;;;-2.39;100.00
28312;BME280;15572;48.810;9.148;2023-02-15T04:08:27;99411.81;;;-2.39;100.00
28312;BME280;15572;48.810;9.148;2023-02-15T04:13:38;99405.66;;;-2.39;100.00
28312;BME280;15572;48.810;9.148;2023-02-15T04:18:36;99406.44;;;-2.37;100.00
28312;BME280;15572;48.810;9.148;2023-02-15T04:23:52;99405.16;;;-2.30;100.00
28312;BME280;15572;48.810;9.148;2023-02-15T04:29:05;99401.53;;;-2.29;100.00
28312;BME280;15572;48.810;9.148;2023-02-15T04:34:02;99399.66;;;-2.27;100.00
28312;BME280;15572;48.810;9.148;2023-02-15T04:39:00;99384.75;;;-2.14;100.00
28312;BME280;15572;48.810;9.148;2023-02-15T04:43:56;99397.56;;;-2.06;100.00
28312;BME280;15572;48.810;9.148;2023-02-15T04:48:53;99381.28;;;-2.00;100.00
28312;BME280;15572;48.810;9.148;2023-02-15T04:53:50;99363.56;;;-2.00;100.00
28312;BME280;15572;48.810;9.148;2023-02-15T04:58:49;99358.06;;;-1.97;100.00
28312;BME280;15572;48.810;9.148;2023-02-15T05:03:46;99366.28;;;-2.01;100.00
28312;BME280;15572;48.810;9.148;2023-02-15T05:08:42;99380.97;;;-2.10;100.00
28312;BME280;15572;48.810;9.148;2023-02-15T05:13:39;99390.66;;;-2.09;100.00
28312;BME280;15572;48.810;9.148;2023-02-15T05:18:37;99387.16;;;-2.25;100.00
28312;BME280;15572;48.810;9.148;2023-02-15T05:23:34;99383.09;;;-2.46;100.00
28312;BME280;15572;48.810;9.148;2023-02-15T05:28:30;99379.41;;;-2.60;100.00
28312;BME280;15572;48.810;9.148;2023-02-15T05:33:26;99383.31;;;-2.67;100.00
28312;BME280;15572;48.810;9.148;2023-02-15T05:38:24;99387.34;;;-2.75;100.00
28312;BME280;15572;48.810;9.148;2023-02-15T05:43:20;99382.38;;;-2.81;100.00
28312;BME280;15572;48.810;9.148;2023-02-15T05:48:18;99387.94;;;-2.70;100.00
28312;BME280;15572;48.810;9.148;2023-02-15T05:53:15;99382.38;;;-2.66;100.00
28312;BME280;15572;48.810;9.148;2023-02-15T05:58:13;99383.75;;;-2.59;100.00
28312;BME280;15572;48.810;9.148;2023-02-15T06:03:09;99383.16;;;-2.64;100.00
28312;BME280;15572;48.810;9.148;2023-02-15T06:08:05;99381.78;;;-2.71;100.00
28312;BME280;15572;48.810;9.148;2023-02-15T06:13:02;99385.16;;;-2.67;100.00
28312;BME280;15572;48.810;9.148;2023-02-15T06:18:00;99386.75;;;-2.65;100.00
28312;BME280;15572;48.810;9.148;2023-02-15T06:22:57;99390.53;;;-2.69;100.00
28312;BME280;15572;48.810;9.148;2023-02-15T06:27:53;99398.91;;;-2.61;100.00
28312;BME280;15572;48.810;9.148;2023-02-15T06:32:50;99395.97;;;-2.56;100.00
28312;BME280;15572;48.810;9.148;2023-02-15T06:37:48;99403.09;;;-2.57;100.00
28312;BME280;15572;48.810;9.148;2023-02-15T06:42:44;99414.47;;;-2.70;100.00
28312;BME280;15572;48.810;9.148;2023-02-15T06:47:41;99414.91;;;-2.78;100.00
28312;BME280;15572;48.810;9.148;2023-02-15T06:52:37;99417.50;;;-2.93;100.00
28312;BME280;15572;48.810;9.148;2023-02-15T06:57:35;99416.03;;;-2.99;100.00
28312;BME280;15572;48.810;9.148;2023-02-15T07:02:31;99414.75;;;-3.08;100.00
28312;BME280;15572;48.810;9.148;2023-02-15T07:07:28;99423.31;;;-3.03;100.00
28312;BME280;15572;48.810;9.148;2023-02-15T07:12:24;99426.50;;;-2.96;100.00
28312;BME280;15572;48.810;9.148;2023-02-15T07:17:41;99428.97;;;-2.93;100.00
28312;BME280;15572;48.810;9.148;2023-02-15T07:22:38;99439.88;;;-2.99;100.00
28312;BME280;15572;48.810;9.148;2023-02-15T07:27:35;99443.56;;;-3.02;100.00
28312;BME280;15572;48.810;9.148;2023-02-15T07:32:32;99444.25;;;-2.98;100.00
28312;BME280;15572;48.810;9.148;2023-02-15T07:37:30;99443.31;;;-2.97;100.00
28312;BME280;15572;48.810;9.148;2023-02-15T07:42:26;99429.50;;;-2.71;100.00
28312;BME280;15572;48.810;9.148;2023-02-15T07:47:23;99422.00;;;-2.47;100.00
28312;BME280;15572;48.810;9.148;2023-02-15T07:52:19;99412.50;;;-2.35;100.00
28312;BME280;15572;48.810;9.148;2023-02-15T07:57:17;99415.75;;;-2.15;100.00
28312;BME280;15572;48.810;9.148;2023-02-15T08:02:14;99415.13;;;-2.04;100.00
28312;BME280;15572;48.810;9.148;2023-02-15T08:07:10;99429.69;;;-2.11;100.00
28312;BME280;15572;48.810;9.148;2023-02-15T08:12:07;99433.97;;;-2.08;100.00
28312;BME280;15572;48.810;9.148;2023-02-15T08:17:04;99436.00;;;-2.14;100.00
28312;BME280;15572;48.810;9.148;2023-02-15T08:22:03;99429.47;;;-2.08;100.00
28312;BME280;15572;48.810;9.148;2023-02-15T08:27:00;99427.06;;;-1.97;100.00
28312;BME280;15572;48.810;9.148;2023-02-15T08:31:59;99423.78;;;-1.86;100.00
28312;BME280;15572;48.810;9.148;2023-02-15T08:36:58;99426.91;;;-1.64;100.00
28312;BME280;15572;48.810;9.148;2023-02-15T08:41:55;99429.19;;;-1.58;100.00
28312;BME280;15572;48.810;9.148;2023-02-15T08:46:52;99429.50;;;-1.48;100.00
28312;BME280;15572;48.810;9.148;2023-02-15T08:51:49;99421.19;;;-1.28;100.00
28312;BME280;15572;48.810;9.148;2023-02-15T08:56:48;99414.63;;;-1.22;100.00
28312;BME280;15572;48.810;9.148;2023-02-15T09:01:47;99412.28;;;-0.99;100.00
28312;BME280;15572;48.810;9.148;2023-02-15T09:06:45;99405.53;;;-0.90;100.00
28312;BME280;15572;48.810;9.148;2023-02-15T09:11:43;99400.97;;;-0.74;100.00
28312;BME280;15572;48.810;9.148;2023-02-15T09:16:43;99405.47;;;-0.48;100.00
28312;BME280;15572;48.810;9.148;2023-02-15T09:21:41;99401.50;;;-0.14;100.00
28312;BME280;15572;48.810;9.148;2023-02-15T09:26:39;99402.59;;;-0.04;100.00
28312;BME280;15572;48.810;9.148;2023-02-15T09:31:38;99394.94;;;0.31;100.00
28312;BME280;15572;48.810;9.148;2023-02-15T09:36:39;99387.47;;;0.36;100.00
28312;BME280;15572;48.810;9.148;2023-02-15T09:47:24;99376.16;;;0.33;100.00
28312;BME280;15572;48.810;9.148;2023-02-15T09:52:34;99370.09;;;0.31;100.00
28312;BME280;15572;48.810;9.148;2023-02-15T09:57:41;99366.56;;;0.43;100.00
28312;BME280;15572;48.810;9.148;2023-02-15T10:03:00;99363.72;;;0.46;100.00
28312;BME280;15572;48.810;9.148;2023-02-15T10:08:23;99376.50;;;0.66;100.00
28312;BME280;15572;48.810;9.148;2023-02-15T10:13:31;99351.78;;;0.90;100.00
28312;BME280;15572;48.810;9.148;2023-02-15T10:18:54;99356.78;;;1.07;100.00
28312;BME280;15572;48.810;9.148;2023-02-15T10:24:08;99353.72;;;1.24;100.00
28312;BME280;15572;48.810;9.148;2023-02-15T10:29:13;99348.66;;;1.45;100.00
28312;BME280;15572;48.810;9.148;2023-02-15T10:34:16;99343.44;;;1.67;100.00
28312;BME280;15572;48.810;9.148;2023-02-15T10:39:20;99336.75;;;1.85;100.00
28312;BME280;15572;48.810;9.148;2023-02-15T10:44:32;99338.16;;;2.02;100.00
28312;BME280;15572;48.810;9.148;2023-02-15T10:49:52;99328.03;;;2.18;100.00
28312;BME280;15572;48.810;9.148;2023-02-15T10:55:02;99321.72;;;2.30;100.00
28312;BME280;15572;48.810;9.148;2023-02-15T11:00:09;99322.75;;;2.51;100.00
28312;BME280;15572;48.810;9.148;2023-02-15T11:05:31;99306.13;;;2.81;100.00
28312;BME280;15572;48.810;9.148;2023-02-15T11:10:36;99308.06;;;3.24;100.00
28312;BME280;15572;48.810;9.148;2023-02-15T11:15:36;99304.31;;;3.69;100.00
28312;BME280;15572;48.810;9.148;2023-02-15T11:20:36;99306.69;;;4.15;100.00
28312;BME280;15572;48.810;9.148;2023-02-15T11:25:35;99295.19;;;4.76;100.00
28312;BME280;15572;48.810;9.148;2023-02-15T11:30:41;99299.97;;;5.33;100.00
28312;BME280;15572;48.810;9.148;2023-02-15T11:35:47;99291.41;;;5.58;100.00
28312;BME280;15572;48.810;9.148;2023-02-15T11:40:48;99284.25;;;5.87;100.00
28312;BME280;15572;48.810;9.148;2023-02-15T11:45:45;99297.44;;;6.19;100.00
28312;BME280;15572;48.810;9.148;2023-02-15T11:50:43;99290.69;;;6.52;99.79
28312;BME280;15572;48.810;9.148;2023-02-15T11:55:42;99289.16;;;6.50;96.71
28312;BME280;15572;48.810;9.148;2023-02-15T12:00:42;99281.19;;;6.58;97.51
28312;BME280;15572;48.810;9.148;2023-02-15T12:05:44;99278.78;;;6.64;97.95
28312;BME280;15572;48.810;9.148;2023-02-15T12:10:55;99280.81;;;6.90;95.34
28312;BME280;15572;48.810;9.148;2023-02-15T12:15:57;99270.34;;;7.24;91.48
28312;BME280;15572;48.810;9.148;2023-02-15T12:20:58;99275.00;;;7.31;94.32
28312;BME280;15572;48.810;9.148;2023-02-15T12:25:56;99272.56;;;7.55;90.89
28312;BME280;15572;48.810;9.148;2023-02-15T12:30:56;99256.88;;;7.86;88.42
28312;BME280;15572;48.810;9.148;2023-02-15T12:35:57;99250.41;;;8.32;88.44
28312;BME280;15572;48.810;9.148;2023-02-15T12:41:00;99252.09;;;8.33;89.44
28312;BME280;15572;48.810;9.148;2023-02-15T12:46:14;99243.91;;;8.69;86.28
28312;BME280;15572;48.810;9.148;2023-02-15T12:51:15;99236.56;;;8.87;86.99
28312;BME280;15572;48.810;9.148;2023-02-15T12:56:11;99232.09;;;9.04;85.53
28312;BME280;15572;48.810;9.148;2023-02-15T13:01:15;99218.97;;;9.51;84.24
28312;BME280;15572;48.810;9.148;2023-02-15T13:06:12;99219.66;;;9.61;82.49
28312;BME280;15572;48.810;9.148;2023-02-15T13:11:10;99210.44;;;10.20;80.87
28312;BME280;15572;48.810;9.148;2023-02-15T13:16:11;99200.56;;;10.68;79.45
28312;BME280;15572;48.810;9.148;2023-02-15T13:21:12;99199.47;;;10.85;77.72
28312;BME280;15572;48.810;9.148;2023-02-15T13:26:13;99192.28;;;10.53;76.27
28312;BME280;15572;48.810;9.148;2023-02-15T13:31:13;99183.00;;;10.39;76.74
28312;BME280;15572;48.810;9.148;2023-02-15T13:36:17;99177.38;;;10.65;73.30
28312;BME280;15572;48.810;9.148;2023-02-15T13:41:17;99179.47;;;10.94;72.60
28312;BME280;15572;48.810;9.148;2023-02-15T13:46:26;99178.88;;;11.15;68.34
28312;BME280;15572;48.810;9.148;2023-02-15T13:51:32;99167.69;;;11.79;68.14
28312;BME280;15572;48.810;9.148;2023-02-15T13:56:40;99156.63;;;12.04;68.29
28312;BME280;15572;48.810;9.148;2023-02-15T14:01:44;99153.88;;;12.41;65.66
28312;BME280;15572;48.810;9.148;2023-02-15T14:07:02;99152.53;;;12.60;65.77
28312;BME280;15572;48.810;9.148;2023-02-15T14:12:21;99147.03;;;12.31;63.37
28312;BME280;15572;48.810;9.148;2023-02-15T14:17:24;99149.56;;;11.95;64.28
28312;BME280;15572;48.810;9.148;2023-02-15T14:22:31;99151.75;;;11.76;63.74
28312;BME280;15572;48.810;9.148;2023-02-15T14:27:41;99148.28;;;11.60;64.10
28312;BME280;15572;48.810;9.148;2023-02-15T14:32:41;99153.69;;;11.37;63.94
28312;BME280;15572;48.810;9.148;2023-02-15T14:37:46;99156.81;;;11.26;62.96
28312;BME280;15572;48.810;9.148;2023-02-15T14:42:53;99153.75;;;11.52;62.28
28312;BME280;15572;48.810;9.148;2023-02-15T14:48:02;99143.16;;;11.42;62.67
28312;BME280;15572;48.810;9.148;2023-02-15T14:58:27;99150.63;;;11.40;62.76
28312;BME280;15572;48.810;9.148;2023-02-15T15:03:24;99152.13;;;11.43;63.16
28312;BME280;15572;48.810;9.148;2023-02-15T15:08:28;99154.72;;;11.36;63.10
28312;BME280;15572;48.810;9.148;2023-02-15T15:13:38;99157.97;;;11.31;63.26
28312;BME280;15572;48.810;9.148;2023-02-15T15:18:44;99162.66;;;11.07;63.19
28312;BME280;15572;48.810;9.148;2023-02-15T15:23:43;99154.69;;;10.66;63.15
28312;BME280;15572;48.810;9.148;2023-02-15T15:28:55;99142.72;;;10.44;63.85
28312;BME280;15572;48.810;9.148;2023-02-15T15:34:34;99153.41;;;10.38;63.94
28312;BME280;15572;48.810;9.148;2023-02-15T15:40:01;99150.88;;;9.96;64.48
28312;BME280;15572;48.810;9.148;2023-02-15T15:45:36;99148.81;;;9.57;64.71
28312;BME280;15572;48.810;9.148;2023-02-15T15:50:39;99154.91;;;9.43;64.55
28312;BME280;15572;48.810;9.148;2023-02-15T15:55:38;99148.63;;;9.26;65.98
28312;BME280;15572;48.810;9.148;2023-02-15T16:00:38;99149.22;;;9.04;67.67
28312;BME280;15572;48.810;9.148;2023-02-15T16:05:38;99151.19;;;8.86;68.89
28312;BME280;15572;48.810;9.148;2023-02-15T16:10:35;99146.38;;;8.64;70.53
28312;BME280;15572;48.810;9.148;2023-02-15T16:15:42;99152.00;;;8.44;71.73
28312;BME280;15572;48.810;9.148;2023-02-15T16:20:40;99154.28;;;8.14;73.70
28312;BME280;15572;48.810;9.148;2023-02-15T16:25:43;99159.22;;;8.18;78.58
28312;BME280;15572;48.810;9.148;2023-02-15T16:30:44;99163.44;;;7.95;80.72
28312;BME280;15572;48.810;9.148;2023-02-15T16:35:53;99161.56;;;7.52;81.56
28312;BME280;15572;48.810;9.148;2023-02-15T16:40:51;99166.28;;;7.23;87.47
28312;BME280;15572;48.810;9.148;2023-02-15T16:46:03;99172.06;;;7.10;91.39
28312;BME280;15572;48.810;9.148;2023-02-15T16:51:00;99173.19;;;6.80;92.61
28312;BME280;15572;48.810;9.148;2023-02-15T16:55:58;99173.34;;;6.42;92.60
28312;BME280;15572;48.810;9.148;2023-02-15T17:00:58;99185.06;;;6.04;93.29
28312;BME280;15572;48.810;9.148;2023-02-15T17:05:57;99186.63;;;5.97;100.00
28312;BME280;15572;48.810;9.148;2023-02-15T17:11:08;99191.16;;;5.77;100.00
28312;BME280;15572;48.810;9.148;2023-02-15T17:16:25;99197.66;;;5.65;100.00
28312;BME280;15572;48.810;9.148;2023-02-15T17:21:25;99194.84;;;5.66;100.00
28312;BME280;15572;48.810;9.148;2023-02-15T17:26:24;99192.56;;;5.33;100.00
28312;BME280;15572;48.810;9.148;2023-02-15T17:31:25;99203.78;;;4.98;100.00
28312;BME280;15572;48.810;9.148;2023-02-15T17:36:24;99205.34;;;4.60;100.00
28312;BME280;15572;48.810;9.148;2023-02-15T17:41:24;99205.22;;;4.32;100.00
28312;BME280;15572;48.810;9.148;2023-02-15T17:46:21;99211.34;;;4.02;100.00
28312;BME280;15572;48.810;9.148;2023-02-15T17:51:19;99213.06;;;3.82;100.00
28312;BME280;15572;48.810;9.148;2023-02-15T17:56:16;99202.31;;;3.61;100.00
28312;BME280;15572;48.810;9.148;2023-02-15T18:01:16;99202.63;;;3.47;100.00
28312;BME280;15572;48.810;9.148;2023-02-15T18:06:33;99207.25;;;3.45;100.00
28312;BME280;15572;48.810;9.148;2023-02-15T18:11:48;99207.41;;;3.32;100.00
28312;BME280;15572;48.810;9.148;2023-02-15T18:16:45;99204.88;;;3.31;100.00
28312;BME280;15572;48.810;9.148;2023-02-15T18:21:43;99208.28;;;3.22;100.00
28312;BME280;15572;48.810;9.148;2023-02-15T18:26:40;99211.50;;;3.05;100.00
28312;BME280;15572;48.810;9.148;2023-02-15T18:31:37;99214.81;;;2.86;100.00
28312;BME280;15572;48.810;9.148;2023-02-15T18:36:39;99216.19;;;2.69;100.00
28312;BME280;15572;48.810;9.148;2023-02-15T18:41:39;99210.81;;;2.58;100.00
28312;BME280;15572;48.810;9.148;2023-02-15T18:46:35;99207.66;;;2.42;100.00
28312;BME280;15572;48.810;9.148;2023-02-15T18:51:32;99210.47;;;2.29;100.00
28312;BME280;15572;48.810;9.148;2023-02-15T18:56:34;99197.97;;;2.19;100.00
28312;BME280;15572;48.810;9.148;2023-02-15T19:01:31;99204.97;;;2.08;100.00
28312;BME280;15572;48.810;9.148;2023-02-15T19:06:28;99195.75;;;2.01;100.00
28312;BME280;15572;48.810;9.148;2023-02-15T19:11:27;99188.94;;;1.97;100.00
28312;BME280;15572;48.810;9.148;2023-02-15T19:16:27;99196.69;;;2.00;100.00
28312;BME280;15572;48.810;9.148;2023-02-15T19:21:26;99187.94;;;1.98;100.00
28312;BME280;15572;48.810;9.148;2023-02-15T19:26:24;99185.59;;;1.83;100.00
28312;BME280;15572;48.810;9.148;2023-02-15T19:31:21;99176.84;;;1.69;100.00
28312;BME280;15572;48.810;9.148;2023-02-15T19:36:18;99175.72;;;1.61;100.00
28312;BME280;15572;48.810;9.148;2023-02-15T19:41:22;99178.38;;;1.61;100.00
28312;BME280;15572;48.810;9.148;2023-02-15T19:46:20;99181.31;;;1.58;100.00
28312;BME280;15572;48.810;9.148;2023-02-15T19:51:17;99170.97;;;1.53;100.00
28312;BME280;15572;48.810;9.148;2023-02-15T19:56:19;99176.78;;;1.47;100.00
28312;BME280;15572;48.810;9.148;2023-02-15T20:01:17;99170.31;;;1.39;100.00
28312;BME280;15572;48.810;9.148;2023-02-15T20:06:14;99169.06;;;1.32;100.00
28312;BME280;15572;48.810;9.148;2023-02-15T20:11:12;99159.31;;;1.19;100.00
28312;BME280;15572;48.810;9.148;2023-02-15T20:16:10;99165.97;;;1.14;100.00
28312;BME280;15572;48.810;9.148;2023-02-15T20:21:09;99173.19;;;1.01;100.00
28312;BME280;15572;48.810;9.148;2023-02-15T20:26:13;99179.56;;;0.98;100.00
28312;BME280;15572;48.810;9.148;2023-02-15T20:31:14;99174.84;;;1.02;100.00
28312;BME280;15572;48.810;9.148;2023-02-15T20:36:13;99165.50;;;1.20;100.00
28312;BME280;15572;48.810;9.148;2023-02-15T20:41:13;99157.28;;;0.99;100.00
28312;BME280;15572;48.810;9.148;2023-02-15T20:46:29;99167.28;;;0.84;100.00
28312;BME280;15572;48.810;9.148;2023-02-15T20:51:26;99168.66;;;0.77;100.00
28312;BME280;15572;48.810;9.148;2023-02-15T20:56:23;99158.69;;;0.68;100.00
28312;BME280;15572;48.810;9.148;2023-02-15T21:01:20;99154.00;;;0.59;100.00
28312;BME280;15572;48.810;9.148;2023-02-15T21:06:18;99152.75;;;0.52;100.00
28312;BME280;15572;48.810;9.148;2023-02-15T21:11:17;99160.31;;;0.58;100.00
28312;BME280;15572;48.810;9.148;2023-02-15T21:16:15;99160.63;;;0.90;100.00
28312;BME280;15572;48.810;9.148;2023-02-15T21:21:16;99159.63;;;0.80;100.00
28312;BME280;15572;48.810;9.148;2023-02-15T21:26:17;99159.97;;;0.63;100.00
28312;BME280;15572;48.810;9.148;2023-02-15T21:31:15;99150.81;;;0.54;100.00
28312;BME280;15572;48.810;9.148;2023-02-15T21:36:15;99147.25;;;0.43;100.00
28312;BME280;15572;48.810;9.148;2023-02-15T21:41:16;99150.34;;;0.36;100.00
28312;BME280;15572;48.810;9.148;2023-02-15T21:46:30;99150.69;;;0.32;100.00
28312;BME280;15572;48.810;9.148;2023-02-15T21:51:44;99141.38;;;0.37;100.00
28312;BME280;15572;48.810;9.148;2023-02-15T21:57:00;99152.38;;;0.33;100.00
28312;BME280;15572;48.810;9.148;2023-02-15T22:01:57;99146.00;;;0.23;100.00
28312;BME280;15572;48.810;9.148;2023-02-15T22:06:54;99156.31;;;0.27;100.00
28312;BME280;15572;48.810;9.148;2023-02-15T22:11:52;99149.75;;;0.20;100.00
28312;BME280;15572;48.810;9.148;2023-02-15T22:16:50;99154.13;;;0.09;100.00
28312;BME280;15572;48.810;9.148;2023-02-15T22:21:47;99160.63;;;0.05;100.00
28312;BME280;15572;48.810;9.148;2023-02-15T22:26:43;99158.44;;;0.22;100.00
28312;BME280;15572;48.810;9.148;2023-02-15T22:31:40;99151.56;;;0.20;100.00
28312;BME280;15572;48.810;9.148;2023-02-15T22:36:37;99144.94;;;0.13;100.00
28312;BME280;15572;48.810;9.148;2023-02-15T22:41:34;99145.50;;;0.05;100.00
28312;BME280;15572;48.810;9.148;2023-02-15T22:46:30;99148.38;;;0.02;100.00
28312;BME280;15572;48.810;9.148;2023-02-15T22:51:28;99134.41;;;-0.02;100.00
28312;BME280;15572;48.810;9.148;2023-02-15T22:56:36;99137.09;;;-0.02;100.00
28312;BME280;15572;48.810;9.148;2023-02-15T23:01:35;99153.38;;;-0.06;100.00
28312;BME280;15572;48.810;9.148;2023-02-15T23:06:32;99163.28;;;-0.08;100.00
28312;BME280;15572;48.810;9.148;2023-02-15T23:11:30;99158.47;;;-0.16;100.00
28312;BME280;15572;48.810;9.148;2023-02-15T23:16:27;99157.44;;;-0.01;100.00
28312;BME280;15572;48.810;9.148;2023-02-15T23:21:27;99169.97;;;-0.15;100.00
28312;BME280;15572;48.810;9.148;2023-02-15T23:26:25;99170.00;;;-0.03;100.00
28312;BME280;15572;48.810;9.148;2023-02-15T23:31:27;99158.69;;;0.07;100.00
28312;BME280;15572;48.810;9.148;2023-02-15T23:36:26;99169.22;;;-0.05;100.00
28312;BME280;15572;48.810;9.148;2023-02-15T23:41:25;99170.41;;;-0.21;100.00
28312;BME280;15572;48.810;9.148;2023-02-15T23:46:26;99176.34;;;-0.30;100.00
28312;BME280;15572;48.810;9.148;2023-02-15T23:51:27;99171.25;;;-0.21;100.00
28312;BME280;15572;48.810;9.148;2023-02-15T23:56:24;99173.28;;;-0.24;100.00
